sensor_id;sensor_type;location;lat;lon;timestamp;temperature;humidity
9662;DHT22;24982;52.344;12.990;2022-07-15T00:02:14;16.70;99.90
9662;DHT22;24982;52.344;12.990;2022-07-15T00:05:17;16.70;99.90
9662;DHT22;24982;52.344;12.990;2022-07-15T00:08:20;16.70;99.90
9662;DHT22;24982;52.344;12.990;2022-07-15T00:11:22;16.70;99.90
9662;DHT22;24982;52.344;12.990;2022-07-15T00:14:24;16.70;99.90
9662;DHT22;24982;52.344;12.990;2022-07-15T00:17:26;16.70;99.90
9662;DHT22;24982;52.344;12.990;2022-07-15T00:20:30;16.70;99.90
9662;DHT22;24982;52.344;12.990;2022-07-15T00:23:34;16.70;99.90
9662;DHT22;24982;52.344;12.990;2022-07-15T00:26:36;16.60;99.90
9662;DHT22;24982;52.344;12.990;2022-07-15T00:29:39;16.60;99.90
9662;DHT22;24982;52.344;12.990;2022-07-15T00:32:41;16.70;99.90
9662;DHT22;24982;52.344;12.990;2022-07-15T00:35:44;16.70;99.90
9662;DHT22;24982;52.344;12.990;2022-07-15T00:38:46;17.20;99.90
9662;DHT22;24982;52.344;12.990;2022-07-15T00:41:49;16.60;99.90
9662;DHT22;24982;52.344;12.990;2022-07-15T00:44:51;16.60;99.90
9662;DHT22;24982;52.344;12.990;2022-07-15T00:47:55;16.50;99.90
9662;DHT22;24982;52.344;12.990;2022-07-15T00:50:58;16.50;99.90
9662;DHT22;24982;52.344;12.990;2022-07-15T00:54:01;16.50;99.90
9662;DHT22;24982;52.344;12.990;2022-07-15T00:57:05;16.50;99.90
9662;DHT22;24982;52.344;12.990;2022-07-15T01:00:08;16.40;99.90
9662;DHT22;24982;52.344;12.990;2022-07-15T01:03:12;16.40;99.90
9662;DHT22;24982;52.344;12.990;2022-07-15T01:06:16;16.50;99.90
9662;DHT22;24982;52.344;12.990;2022-07-15T01:09:18;16.40;99.90
9662;DHT22;24982;52.344;12.990;2022-07-15T01:12:22;16.30;99.90
9662;DHT22;24982;52.344;12.990;2022-07-15T01:15:25;16.40;99.90
9662;DHT22;24982;52.344;12.990;2022-07-15T01:18:27;16.30;99.90
9662;DHT22;24982;52.344;12.990;2022-07-15T01:21:31;16.20;99.90
9662;DHT22;24982;52.344;12.990;2022-07-15T01:24:34;16.20;99.90
9662;DHT22;24982;52.344;12.990;2022-07-15T01:27:44;16.10;99.90
9662;DHT22;24982;52.344;12.990;2022-07-15T01:30:53;16.10;99.90
9662;DHT22;24982;52.344;12.990;2022-07-15T01:33:56;16.10;99.90
9662;DHT22;24982;52.344;12.990;2022-07-15T01:37:00;16.00;99.90
9662;DHT22;24982;52.344;12.990;2022-07-15T01:40:03;15.90;99.90
9662;DHT22;24982;52.344;12.990;2022-07-15T01:43:05;15.90;99.90
9662;DHT22;24982;52.344;12.990;2022-07-15T01:46:07;16.00;99.90
9662;DHT22;24982;52.344;12.990;2022-07-15T01:49:12;16.00;99.90
9662;DHT22;24982;52.344;12.990;2022-07-15T01:52:48;15.90;99.90
9662;DHT22;24982;52.344;12.990;2022-07-15T01:55:53;15.80;99.90
9662;DHT22;24982;52.344;12.990;2022-07-15T01:58:58;15.80;99.90
9662;DHT22;24982;52.344;12.990;2022-07-15T02:02:00;15.90;99.90
9662;DHT22;24982;52.344;12.990;2022-07-15T02:05:03;15.60;99.90
9662;DHT22;24982;52.344;12.990;2022-07-15T02:08:07;15.80;99.90
9662;DHT22;24982;52.344;12.990;2022-07-15T02:11:09;15.80;99.90
9662;DHT22;24982;52.344;12.990;2022-07-15T02:14:12;15.80;99.90
9662;DHT22;24982;52.344;12.990;2022-07-15T02:17:15;15.80;99.90
9662;DHT22;24982;52.344;12.990;2022-07-15T02:20:18;15.80;99.90
9662;DHT22;24982;52.344;12.990;2022-07-15T02:23:22;15.70;99.90
9662;DHT22;24982;52.344;12.990;2022-07-15T02:26:24;15.70;99.90
9662;DHT22;24982;52.344;12.990;2022-07-15T02:29:29;15.70;99.90
9662;DHT22;24982;52.344;12.990;2022-07-15T02:32:31;15.60;99.90
9662;DHT22;24982;52.344;12.990;2022-07-15T02:35:34;15.50;99.90
9662;DHT22;24982;52.344;12.990;2022-07-15T02:38:38;15.50;99.90
9662;DHT22;24982;52.344;12.990;2022-07-15T02:41:41;15.40;99.90
9662;DHT22;24982;52.344;12.990;2022-07-15T02:44:46;15.50;99.90
9662;DHT22;24982;52.344;12.990;2022-07-15T02:47:49;15.50;99.90
9662;DHT22;24982;52.344;12.990;2022-07-15T02:50:59;15.50;99.90
9662;DHT22;24982;52.344;12.990;2022-07-15T02:54:03;15.40;99.90
9662;DHT22;24982;52.344;12.990;2022-07-15T02:57:08;15.60;99.90
9662;DHT22;24982;52.344;12.990;2022-07-15T03:00:13;15.30;99.90
9662;DHT22;24982;52.344;12.990;2022-07-15T03:03:17;15.40;99.90
9662;DHT22;24982;52.344;12.990;2022-07-15T03:06:21;15.40;99.90
9662;DHT22;24982;52.344;12.990;2022-07-15T03:09:25;15.40;99.90
9662;DHT22;24982;52.344;12.990;2022-07-15T03:12:27;15.40;99.90
9662;DHT22;24982;52.344;12.990;2022-07-15T03:15:30;15.40;99.90
9662;DHT22;24982;52.344;12.990;2022-07-15T03:18:32;15.30;99.90
9662;DHT22;24982;52.344;12.990;2022-07-15T03:21:34;15.20;99.90
9662;DHT22;24982;52.344;12.990;2022-07-15T03:24:38;15.20;99.90
9662;DHT22;24982;52.344;12.990;2022-07-15T03:27:40;15.30;99.90
9662;DHT22;24982;52.344;12.990;2022-07-15T03:30:45;15.30;99.90
9662;DHT22;24982;52.344;12.990;2022-07-15T03:33:49;15.30;99.90
9662;DHT22;24982;52.344;12.990;2022-07-15T03:36:53;15.20;99.90
9662;DHT22;24982;52.344;12.990;2022-07-15T03:39:57;15.20;99.90
9662;DHT22;24982;52.344;12.990;2022-07-15T03:42:59;15.20;99.90
9662;DHT22;24982;52.344;12.990;2022-07-15T03:46:01;15.20;99.90
9662;DHT22;24982;52.344;12.990;2022-07-15T03:49:07;15.10;99.90
9662;DHT22;24982;52.344;12.990;2022-07-15T03:52:10;15.20;99.90
9662;DHT22;24982;52.344;12.990;2022-07-15T03:55:13;15.20;99.90
9662;DHT22;24982;52.344;12.990;2022-07-15T03:58:15;15.20;99.90
9662;DHT22;24982;52.344;12.990;2022-07-15T04:01:17;15.20;99.90
9662;DHT22;24982;52.344;12.990;2022-07-15T04:04:21;15.20;99.90
9662;DHT22;24982;52.344;12.990;2022-07-15T04:07:25;14.90;99.90
9662;DHT22;24982;52.344;12.990;2022-07-15T04:10:29;15.00;99.90
9662;DHT22;24982;52.344;12.990;2022-07-15T04:13:31;15.20;99.90
9662;DHT22;24982;52.344;12.990;2022-07-15T04:16:33;15.20;99.90
9662;DHT22;24982;52.344;12.990;2022-07-15T04:19:44;15.30;99.90
9662;DHT22;24982;52.344;12.990;2022-07-15T04:22:46;15.20;99.90
9662;DHT22;24982;52.344;12.990;2022-07-15T04:25:50;15.20;99.90
9662;DHT22;24982;52.344;12.990;2022-07-15T04:28:53;15.30;99.90
9662;DHT22;24982;52.344;12.990;2022-07-15T04:31:57;15.30;99.90
9662;DHT22;24982;52.344;12.990;2022-07-15T04:35:05;15.30;99.90
9662;DHT22;24982;52.344;12.990;2022-07-15T04:38:08;15.30;99.90
9662;DHT22;24982;52.344;12.990;2022-07-15T04:41:13;15.40;99.90
9662;DHT22;24982;52.344;12.990;2022-07-15T04:44:15;15.40;99.90
9662;DHT22;24982;52.344;12.990;2022-07-15T04:47:18;15.40;99.90
9662;DHT22;24982;52.344;12.990;2022-07-15T04:50:26;15.50;99.90
9662;DHT22;24982;52.344;12.990;2022-07-15T04:53:45;15.50;99.90
9662;DHT22;24982;52.344;12.990;2022-07-15T04:56:48;15.60;99.90
9662;DHT22;24982;52.344;12.990;2022-07-15T04:59:50;15.60;99.90
9662;DHT22;24982;52.344;12.990;2022-07-15T05:02:52;15.60;99.90
9662;DHT22;24982;52.344;12.990;2022-07-15T05:05:55;15.70;99.90
9662;DHT22;24982;52.344;12.990;2022-07-15T05:09:05;15.80;99.90
9662;DHT22;24982;52.344;12.990;2022-07-15T05:12:10;15.90;99.90
9662;DHT22;24982;52.344;12.990;2022-07-15T05:15:23;16.00;99.90
9662;DHT22;24982;52.344;12.990;2022-07-15T05:18:25;16.00;99.90
9662;DHT22;24982;52.344;12.990;2022-07-15T05:21:30;16.10;99.90
9662;DHT22;24982;52.344;12.990;2022-07-15T05:24:32;16.20;99.90
9662;DHT22;24982;52.344;12.990;2022-07-15T05:27:39;16.20;99.90
9662;DHT22;24982;52.344;12.990;2022-07-15T05:30:41;16.20;99.90
9662;DHT22;24982;52.344;12.990;2022-07-15T05:33:45;16.20;99.90
9662;DHT22;24982;52.344;12.990;2022-07-15T05:36:47;16.30;99.90
9662;DHT22;24982;52.344;12.990;2022-07-15T05:39:52;16.00;99.90
9662;DHT22;24982;52.344;12.990;2022-07-15T05:43:15;16.00;99.90
9662;DHT22;24982;52.344;12.990;2022-07-15T05:46:18;15.90;99.90
9662;DHT22;24982;52.344;12.990;2022-07-15T05:49:29;15.90;99.90
9662;DHT22;24982;52.344;12.990;2022-07-15T05:52:31;16.00;99.90
9662;DHT22;24982;52.344;12.990;2022-07-15T05:55:36;16.00;99.90
9662;DHT22;24982;52.344;12.990;2022-07-15T05:58:40;16.10;99.90
9662;DHT22;24982;52.344;12.990;2022-07-15T06:01:42;16.20;99.90
9662;DHT22;24982;52.344;12.990;2022-07-15T06:04:44;16.30;99.90
9662;DHT22;24982;52.344;12.990;2022-07-15T06:07:46;16.40;99.90
9662;DHT22;24982;52.344;12.990;2022-07-15T06:10:53;16.50;99.90
9662;DHT22;24982;52.344;12.990;2022-07-15T06:13:58;16.60;99.90
9662;DHT22;24982;52.344;12.990;2022-07-15T06:17:00;16.70;99.90
9662;DHT22;24982;52.344;12.990;2022-07-15T06:20:03;16.70;99.90
9662;DHT22;24982;52.344;12.990;2022-07-15T06:23:06;16.80;99.90
9662;DHT22;24982;52.344;12.990;2022-07-15T06:26:10;16.90;99.90
9662;DHT22;24982;52.344;12.990;2022-07-15T06:29:14;17.00;99.90
9662;DHT22;24982;52.344;12.990;2022-07-15T06:32:16;17.20;99.90
9662;DHT22;24982;52.344;12.990;2022-07-15T06:35:18;17.30;99.90
9662;DHT22;24982;52.344;12.990;2022-07-15T06:38:22;17.40;99.90
9662;DHT22;24982;52.344;12.990;2022-07-15T06:41:25;17.50;99.90
9662;DHT22;24982;52.344;12.990;2022-07-15T06:44:29;17.50;99.90
9662;DHT22;24982;52.344;12.990;2022-07-15T06:47:31;17.60;99.90
9662;DHT22;24982;52.344;12.990;2022-07-15T06:50:33;17.70;99.90
9662;DHT22;24982;52.344;12.990;2022-07-15T06:53:36;17.70;99.90
9662;DHT22;24982;52.344;12.990;2022-07-15T06:56:38;17.70;99.90
9662;DHT22;24982;52.344;12.990;2022-07-15T06:59:42;17.80;99.90
9662;DHT22;24982;52.344;12.990;2022-07-15T07:02:44;17.90;99.90
9662;DHT22;24982;52.344;12.990;2022-07-15T07:05:47;18.00;99.90
9662;DHT22;24982;52.344;12.990;2022-07-15T07:08:49;18.10;99.90
9662;DHT22;24982;52.344;12.990;2022-07-15T07:11:52;18.10;99.90
9662;DHT22;24982;52.344;12.990;2022-07-15T07:14:56;18.10;99.90
9662;DHT22;24982;52.344;12.990;2022-07-15T07:17:59;18.20;99.90
9662;DHT22;24982;52.344;12.990;2022-07-15T07:21:01;18.10;99.90
9662;DHT22;24982;52.344;12.990;2022-07-15T07:24:03;18.30;99.90
9662;DHT22;24982;52.344;12.990;2022-07-15T07:27:06;18.30;99.90
9662;DHT22;24982;52.344;12.990;2022-07-15T07:30:10;18.30;99.90
9662;DHT22;24982;52.344;12.990;2022-07-15T07:33:12;18.30;99.90
9662;DHT22;24982;52.344;12.990;2022-07-15T07:36:14;18.40;99.90
9662;DHT22;24982;52.344;12.990;2022-07-15T07:39:17;18.50;99.90
9662;DHT22;24982;52.344;12.990;2022-07-15T07:42:19;18.60;99.90
9662;DHT22;24982;52.344;12.990;2022-07-15T07:45:22;18.60;99.90
9662;DHT22;24982;52.344;12.990;2022-07-15T07:48:24;18.70;99.90
9662;DHT22;24982;52.344;12.990;2022-07-15T07:51:27;18.70;99.90
9662;DHT22;24982;52.344;12.990;2022-07-15T07:54:29;18.90;99.90
9662;DHT22;24982;52.344;12.990;2022-07-15T07:57:33;18.90;99.90
9662;DHT22;24982;52.344;12.990;2022-07-15T08:00:36;18.90;99.90
9662;DHT22;24982;52.344;12.990;2022-07-15T08:03:38;18.80;99.90
9662;DHT22;24982;52.344;12.990;2022-07-15T08:06:40;18.80;99.90
9662;DHT22;24982;52.344;12.990;2022-07-15T08:09:43;18.80;99.90
9662;DHT22;24982;52.344;12.990;2022-07-15T08:12:45;18.90;99.90
9662;DHT22;24982;52.344;12.990;2022-07-15T08:15:49;19.10;99.90
9662;DHT22;24982;52.344;12.990;2022-07-15T08:18:52;19.20;99.90
9662;DHT22;24982;52.344;12.990;2022-07-15T08:21:54;19.30;99.90
9662;DHT22;24982;52.344;12.990;2022-07-15T08:24:56;19.30;99.90
9662;DHT22;24982;52.344;12.990;2022-07-15T08:27:59;19.30;99.90
9662;DHT22;24982;52.344;12.990;2022-07-15T08:31:02;19.10;99.90
9662;DHT22;24982;52.344;12.990;2022-07-15T08:34:06;18.50;99.90
9662;DHT22;24982;52.344;12.990;2022-07-15T08:37:08;18.70;99.90
9662;DHT22;24982;52.344;12.990;2022-07-15T08:40:11;18.60;99.90
9662;DHT22;24982;52.344;12.990;2022-07-15T08:43:13;18.40;99.90
9662;DHT22;24982;52.344;12.990;2022-07-15T08:46:17;18.20;99.90
9662;DHT22;24982;52.344;12.990;2022-07-15T08:49:22;18.20;99.90
9662;DHT22;24982;52.344;12.990;2022-07-15T08:52:25;18.20;99.90
9662;DHT22;24982;52.344;12.990;2022-07-15T08:55:28;18.40;99.90
9662;DHT22;24982;52.344;12.990;2022-07-15T08:58:31;18.60;99.90
9662;DHT22;24982;52.344;12.990;2022-07-15T09:01:42;18.80;99.90
9662;DHT22;24982;52.344;12.990;2022-07-15T09:05:20;19.00;99.90
9662;DHT22;24982;52.344;12.990;2022-07-15T09:08:23;19.20;99.90
9662;DHT22;24982;52.344;12.990;2022-07-15T09:11:29;19.50;99.90
9662;DHT22;24982;52.344;12.990;2022-07-15T09:14:32;19.80;99.90
9662;DHT22;24982;52.344;12.990;2022-07-15T09:17:36;20.10;99.90
9662;DHT22;24982;52.344;12.990;2022-07-15T09:20:38;20.10;99.90
9662;DHT22;24982;52.344;12.990;2022-07-15T09:23:40;20.00;99.90
9662;DHT22;24982;52.344;12.990;2022-07-15T09:26:43;19.80;99.90
9662;DHT22;24982;52.344;12.990;2022-07-15T09:29:45;19.50;99.90
9662;DHT22;24982;52.344;12.990;2022-07-15T09:33:08;19.30;99.90
9662;DHT22;24982;52.344;12.990;2022-07-15T09:36:41;19.20;99.90
9662;DHT22;24982;52.344;12.990;2022-07-15T09:39:53;19.20;99.90
9662;DHT22;24982;52.344;12.990;2022-07-15T09:43:02;19.40;99.90
9662;DHT22;24982;52.344;12.990;2022-07-15T09:46:06;19.50;99.90
9662;DHT22;24982;52.344;12.990;2022-07-15T09:49:09;19.80;99.90
9662;DHT22;24982;52.344;12.990;2022-07-15T09:52:13;20.30;99.90
9662;DHT22;24982;52.344;12.990;2022-07-15T09:55:15;20.80;99.90
9662;DHT22;24982;52.344;12.990;2022-07-15T09:58:19;21.40;99.90
9662;DHT22;24982;52.344;12.990;2022-07-15T10:01:21;21.40;99.90
9662;DHT22;24982;52.344;12.990;2022-07-15T10:04:26;21.20;99.90
9662;DHT22;24982;52.344;12.990;2022-07-15T10:07:28;20.90;99.90
9662;DHT22;24982;52.344;12.990;2022-07-15T10:10:31;20.60;99.90
9662;DHT22;24982;52.344;12.990;2022-07-15T10:13:54;20.30;99.90
9662;DHT22;24982;52.344;12.990;2022-07-15T10:17:14;20.20;99.90
9662;DHT22;24982;52.344;12.990;2022-07-15T10:20:43;20.30;99.90
9662;DHT22;24982;52.344;12.990;2022-07-15T10:24:02;20.40;99.90
9662;DHT22;24982;52.344;12.990;2022-07-15T10:30:27;21.70;99.90
9662;DHT22;24982;52.344;12.990;2022-07-15T10:33:29;23.10;99.90
9662;DHT22;24982;52.344;12.990;2022-07-15T10:36:39;24.40;95.80
9662;DHT22;24982;52.344;12.990;2022-07-15T10:39:53;25.80;92.30
9662;DHT22;24982;52.344;12.990;2022-07-15T10:42:57;26.60;85.60
9662;DHT22;24982;52.344;12.990;2022-07-15T10:46:03;27.20;81.20
9662;DHT22;24982;52.344;12.990;2022-07-15T10:49:28;27.50;81.10
9662;DHT22;24982;52.344;12.990;2022-07-15T10:52:33;27.00;74.00
9662;DHT22;24982;52.344;12.990;2022-07-15T10:55:35;25.70;76.90
9662;DHT22;24982;52.344;12.990;2022-07-15T10:58:37;24.50;78.50
9662;DHT22;24982;52.344;12.990;2022-07-15T11:01:40;23.80;81.30
9662;DHT22;24982;52.344;12.990;2022-07-15T11:04:43;23.80;81.50
9662;DHT22;24982;52.344;12.990;2022-07-15T11:07:46;23.60;78.80
9662;DHT22;24982;52.344;12.990;2022-07-15T11:10:48;23.50;81.20
9662;DHT22;24982;52.344;12.990;2022-07-15T11:13:50;23.70;83.10
9662;DHT22;24982;52.344;12.990;2022-07-15T11:16:56;23.70;82.60
9662;DHT22;24982;52.344;12.990;2022-07-15T11:19:59;23.30;84.20
9662;DHT22;24982;52.344;12.990;2022-07-15T11:23:05;22.90;84.00
9662;DHT22;24982;52.344;12.990;2022-07-15T11:29:10;22.10;96.90
9662;DHT22;24982;52.344;12.990;2022-07-15T11:32:14;21.80;97.00
9662;DHT22;24982;52.344;12.990;2022-07-15T11:35:16;21.70;99.90
9662;DHT22;24982;52.344;12.990;2022-07-15T11:38:23;21.60;99.90
9662;DHT22;24982;52.344;12.990;2022-07-15T11:41:25;21.70;99.90
9662;DHT22;24982;52.344;12.990;2022-07-15T11:44:46;21.80;99.90
9662;DHT22;24982;52.344;12.990;2022-07-15T11:47:52;21.70;99.90
9662;DHT22;24982;52.344;12.990;2022-07-15T11:50:56;21.40;99.90
9662;DHT22;24982;52.344;12.990;2022-07-15T11:57:04;21.10;94.30
9662;DHT22;24982;52.344;12.990;2022-07-15T12:00:08;20.80;90.20
9662;DHT22;24982;52.344;12.990;2022-07-15T12:03:13;20.60;90.10
9662;DHT22;24982;52.344;12.990;2022-07-15T12:06:17;20.50;90.30
9662;DHT22;24982;52.344;12.990;2022-07-15T12:09:21;20.60;90.30
9662;DHT22;24982;52.344;12.990;2022-07-15T12:12:23;21.00;90.10
9662;DHT22;24982;52.344;12.990;2022-07-15T12:15:25;21.70;90.00
9662;DHT22;24982;52.344;12.990;2022-07-15T12:18:27;22.50;88.90
9662;DHT22;24982;52.344;12.990;2022-07-15T12:21:29;23.80;85.30
9662;DHT22;24982;52.344;12.990;2022-07-15T12:24:40;24.90;79.50
9662;DHT22;24982;52.344;12.990;2022-07-15T12:27:43;24.70;80.60
9662;DHT22;24982;52.344;12.990;2022-07-15T12:30:45;24.10;81.10
9662;DHT22;24982;52.344;12.990;2022-07-15T12:33:50;23.50;83.10
9662;DHT22;24982;52.344;12.990;2022-07-15T12:36:56;23.10;82.70
9662;DHT22;24982;52.344;12.990;2022-07-15T12:40:00;22.50;87.30
9662;DHT22;24982;52.344;12.990;2022-07-15T12:43:03;22.10;97.30
9662;DHT22;24982;52.344;12.990;2022-07-15T12:46:05;21.70;84.60
9662;DHT22;24982;52.344;12.990;2022-07-15T12:49:07;21.50;85.40
9662;DHT22;24982;52.344;12.990;2022-07-15T12:52:18;21.30;86.30
9662;DHT22;24982;52.344;12.990;2022-07-15T12:55:25;21.10;89.10
9662;DHT22;24982;52.344;12.990;2022-07-15T12:58:29;21.00;88.40
9662;DHT22;24982;52.344;12.990;2022-07-15T13:01:31;20.90;86.90
9662;DHT22;24982;52.344;12.990;2022-07-15T13:04:33;20.90;89.20
9662;DHT22;24982;52.344;12.990;2022-07-15T13:07:36;21.20;87.50
9662;DHT22;24982;52.344;12.990;2022-07-15T13:10:40;21.40;86.70
9662;DHT22;24982;52.344;12.990;2022-07-15T13:13:42;21.70;87.00
9662;DHT22;24982;52.344;12.990;2022-07-15T13:16:44;22.20;89.00
9662;DHT22;24982;52.344;12.990;2022-07-15T13:19:47;22.60;89.10
9662;DHT22;24982;52.344;12.990;2022-07-15T13:22:49;22.90;86.20
9662;DHT22;24982;52.344;12.990;2022-07-15T13:25:53;23.20;85.30
9662;DHT22;24982;52.344;12.990;2022-07-15T13:28:55;23.20;83.70
9662;DHT22;24982;52.344;12.990;2022-07-15T13:31:57;23.00;84.10
9662;DHT22;24982;52.344;12.990;2022-07-15T13:34:59;22.90;86.60
9662;DHT22;24982;52.344;12.990;2022-07-15T13:38:01;22.70;84.30
9662;DHT22;24982;52.344;12.990;2022-07-15T13:41:05;22.70;85.40
9662;DHT22;24982;52.344;12.990;2022-07-15T13:44:07;22.70;87.40
9662;DHT22;24982;52.344;12.990;2022-07-15T13:47:09;22.60;88.60
9662;DHT22;24982;52.344;12.990;2022-07-15T13:50:11;22.60;85.90
9662;DHT22;24982;52.344;12.990;2022-07-15T13:53:31;22.70;86.90
9662;DHT22;24982;52.344;12.990;2022-07-15T13:56:34;22.70;85.50
9662;DHT22;24982;52.344;12.990;2022-07-15T13:59:37;22.80;86.60
9662;DHT22;24982;52.344;12.990;2022-07-15T14:02:40;22.80;84.40
9662;DHT22;24982;52.344;12.990;2022-07-15T14:05:42;23.00;87.90
9662;DHT22;24982;52.344;12.990;2022-07-15T14:08:45;23.00;86.60
9662;DHT22;24982;52.344;12.990;2022-07-15T14:11:50;23.00;86.40
9662;DHT22;24982;52.344;12.990;2022-07-15T14:14:55;22.90;85.50
9662;DHT22;24982;52.344;12.990;2022-07-15T14:17:57;22.90;84.10
9662;DHT22;24982;52.344;12.990;2022-07-15T14:20:59;22.80;81.40
9662;DHT22;24982;52.344;12.990;2022-07-15T14:24:03;22.80;82.00
9662;DHT22;24982;52.344;12.990;2022-07-15T14:27:09;23.00;84.10
9662;DHT22;24982;52.344;12.990;2022-07-15T14:30:11;23.00;83.80
9662;DHT22;24982;52.344;12.990;2022-07-15T14:33:13;22.80;82.00
9662;DHT22;24982;52.344;12.990;2022-07-15T14:36:16;22.70;84.20
9662;DHT22;24982;52.344;12.990;2022-07-15T14:39:17;22.50;83.60
9662;DHT22;24982;52.344;12.990;2022-07-15T14:42:21;22.50;82.80
9662;DHT22;24982;52.344;12.990;2022-07-15T14:45:23;22.40;83.10
9662;DHT22;24982;52.344;12.990;2022-07-15T14:48:25;22.30;82.40
9662;DHT22;24982;52.344;12.990;2022-07-15T14:51:27;22.20;82.70
9662;DHT22;24982;52.344;12.990;2022-07-15T14:54:29;22.00;82.40
9662;DHT22;24982;52.344;12.990;2022-07-15T14:57:33;22.00;84.30
9662;DHT22;24982;52.344;12.990;2022-07-15T15:00:35;22.00;83.70
9662;DHT22;24982;52.344;12.990;2022-07-15T15:03:37;22.00;83.00
9662;DHT22;24982;52.344;12.990;2022-07-15T15:06:39;22.00;86.10
9662;DHT22;24982;52.344;12.990;2022-07-15T15:09:41;22.00;86.50
9662;DHT22;24982;52.344;12.990;2022-07-15T15:12:44;22.10;86.70
9662;DHT22;24982;52.344;12.990;2022-07-15T15:15:46;22.60;85.60
9662;DHT22;24982;52.344;12.990;2022-07-15T15:18:48;22.80;81.90
9662;DHT22;24982;52.344;12.990;2022-07-15T15:21:50;22.60;82.90
9662;DHT22;24982;52.344;12.990;2022-07-15T15:24:52;22.50;81.90
9662;DHT22;24982;52.344;12.990;2022-07-15T15:27:56;22.60;84.50
9662;DHT22;24982;52.344;12.990;2022-07-15T15:30:58;22.50;82.50
9662;DHT22;24982;52.344;12.990;2022-07-15T15:34:00;22.70;81.50
9662;DHT22;24982;52.344;12.990;2022-07-15T15:37:02;23.00;81.30
9662;DHT22;24982;52.344;12.990;2022-07-15T15:40:05;22.80;80.20
9662;DHT22;24982;52.344;12.990;2022-07-15T15:43:08;22.70;81.90
9662;DHT22;24982;52.344;12.990;2022-07-15T15:46:12;22.70;81.80
9662;DHT22;24982;52.344;12.990;2022-07-15T15:49:14;22.50;81.80
9662;DHT22;24982;52.344;12.990;2022-07-15T15:52:16;22.40;82.80
9662;DHT22;24982;52.344;12.990;2022-07-15T15:55:18;22.20;84.50
9662;DHT22;24982;52.344;12.990;2022-07-15T15:58:22;22.20;83.00
9662;DHT22;24982;52.344;12.990;2022-07-15T16:01:24;22.10;84.10
9662;DHT22;24982;52.344;12.990;2022-07-15T16:04:26;22.10;84.10
9662;DHT22;24982;52.344;12.990;2022-07-15T16:07:28;22.10;84.70
9662;DHT22;24982;52.344;12.990;2022-07-15T16:10:30;22.00;87.30
9662;DHT22;24982;52.344;12.990;2022-07-15T16:13:34;21.90;87.60
9662;DHT22;24982;52.344;12.990;2022-07-15T16:16:36;21.80;85.90
9662;DHT22;24982;52.344;12.990;2022-07-15T16:19:38;21.70;87.50
9662;DHT22;24982;52.344;12.990;2022-07-15T16:22:40;21.70;86.50
9662;DHT22;24982;52.344;12.990;2022-07-15T16:25:54;21.60;84.80
9662;DHT22;24982;52.344;12.990;2022-07-15T16:28:57;21.50;83.70
9662;DHT22;24982;52.344;12.990;2022-07-15T16:31:59;21.40;84.10
9662;DHT22;24982;52.344;12.990;2022-07-15T16:35:01;21.40;85.40
9662;DHT22;24982;52.344;12.990;2022-07-15T16:38:04;21.40;85.40
9662;DHT22;24982;52.344;12.990;2022-07-15T16:41:06;21.30;88.60
9662;DHT22;24982;52.344;12.990;2022-07-15T16:44:09;21.10;88.30
9662;DHT22;24982;52.344;12.990;2022-07-15T16:47:11;21.10;88.50
9662;DHT22;24982;52.344;12.990;2022-07-15T16:50:14;21.00;87.90
9662;DHT22;24982;52.344;12.990;2022-07-15T16:53:16;21.00;88.40
9662;DHT22;24982;52.344;12.990;2022-07-15T16:56:18;21.00;88.10
9662;DHT22;24982;52.344;12.990;2022-07-15T16:59:22;21.00;89.10
9662;DHT22;24982;52.344;12.990;2022-07-15T17:02:24;21.00;90.10
9662;DHT22;24982;52.344;12.990;2022-07-15T17:05:26;21.00;89.90
9662;DHT22;24982;52.344;12.990;2022-07-15T17:08:28;20.90;88.70
9662;DHT22;24982;52.344;12.990;2022-07-15T17:11:30;20.80;90.30
9662;DHT22;24982;52.344;12.990;2022-07-15T17:14:34;20.60;91.00
9662;DHT22;24982;52.344;12.990;2022-07-15T17:17:36;20.60;88.70
9662;DHT22;24982;52.344;12.990;2022-07-15T17:20:38;20.60;90.40
9662;DHT22;24982;52.344;12.990;2022-07-15T17:23:40;20.50;89.60
9662;DHT22;24982;52.344;12.990;2022-07-15T17:26:42;20.50;89.50
9662;DHT22;24982;52.344;12.990;2022-07-15T17:29:46;20.60;89.30
9662;DHT22;24982;52.344;12.990;2022-07-15T17:32:48;20.50;89.30
9662;DHT22;24982;52.344;12.990;2022-07-15T17:35:50;20.50;88.80
9662;DHT22;24982;52.344;12.990;2022-07-15T17:38:52;20.40;88.30
9662;DHT22;24982;52.344;12.990;2022-07-15T17:41:55;20.40;89.00
9662;DHT22;24982;52.344;12.990;2022-07-15T17:44:58;20.80;89.70
9662;DHT22;24982;52.344;12.990;2022-07-15T17:48:00;20.30;89.50
9662;DHT22;24982;52.344;12.990;2022-07-15T17:51:03;20.20;90.20
9662;DHT22;24982;52.344;12.990;2022-07-15T17:54:05;20.20;90.50
9662;DHT22;24982;52.344;12.990;2022-07-15T17:57:07;20.20;91.50
9662;DHT22;24982;52.344;12.990;2022-07-15T18:00:12;20.20;91.70
9662;DHT22;24982;52.344;12.990;2022-07-15T18:03:15;20.20;91.50
9662;DHT22;24982;52.344;12.990;2022-07-15T18:06:18;20.30;92.00
9662;DHT22;24982;52.344;12.990;2022-07-15T18:09:20;20.30;91.40
9662;DHT22;24982;52.344;12.990;2022-07-15T18:12:22;20.30;91.40
9662;DHT22;24982;52.344;12.990;2022-07-15T18:15:26;20.20;91.60
9662;DHT22;24982;52.344;12.990;2022-07-15T18:18:28;20.20;91.80
9662;DHT22;24982;52.344;12.990;2022-07-15T18:21:30;20.10;92.70
9662;DHT22;24982;52.344;12.990;2022-07-15T18:24:32;20.10;93.30
9662;DHT22;24982;52.344;12.990;2022-07-15T18:27:34;20.00;92.80
9662;DHT22;24982;52.344;12.990;2022-07-15T18:30:38;20.00;93.30
9662;DHT22;24982;52.344;12.990;2022-07-15T18:33:40;19.90;93.30
9662;DHT22;24982;52.344;12.990;2022-07-15T18:36:42;19.90;94.00
9662;DHT22;24982;52.344;12.990;2022-07-15T18:39:44;19.80;93.90
9662;DHT22;24982;52.344;12.990;2022-07-15T18:42:46;19.80;93.70
9662;DHT22;24982;52.344;12.990;2022-07-15T18:45:50;19.80;93.90
9662;DHT22;24982;52.344;12.990;2022-07-15T18:48:54;19.70;93.60
9662;DHT22;24982;52.344;12.990;2022-07-15T18:51:56;19.70;93.90
9662;DHT22;24982;52.344;12.990;2022-07-15T18:54:58;19.70;94.00
9662;DHT22;24982;52.344;12.990;2022-07-15T18:58:00;19.60;94.00
9662;DHT22;24982;52.344;12.990;2022-07-15T19:01:04;19.60;93.50
9662;DHT22;24982;52.344;12.990;2022-07-15T19:04:06;19.50;94.10
9662;DHT22;24982;52.344;12.990;2022-07-15T19:07:08;19.50;94.10
9662;DHT22;24982;52.344;12.990;2022-07-15T19:10:10;19.40;94.40
9662;DHT22;24982;52.344;12.990;2022-07-15T19:13:12;19.40;94.60
9662;DHT22;24982;52.344;12.990;2022-07-15T19:16:16;19.30;95.00
9662;DHT22;24982;52.344;12.990;2022-07-15T19:19:18;19.30;95.30
9662;DHT22;24982;52.344;12.990;2022-07-15T19:22:20;19.20;95.30
9662;DHT22;24982;52.344;12.990;2022-07-15T19:25:23;19.10;97.90
9662;DHT22;24982;52.344;12.990;2022-07-15T19:28:25;19.00;99.90
9662;DHT22;24982;52.344;12.990;2022-07-15T19:31:29;19.00;99.90